Time;durP1;ratioP1;P1;durP2;ratioP2;P2;SDS_P1;SDS_P2;PMS_P1;PMS_P2;Temp;Humidity;BMP_temperature;BMP_pressure;BME280_temperature;BME280_humidity;BME280_pressure;Samples;Min_cycle;Max_cycle;Signal;HPM_P1;HPM_P2
2022/05/22 00:00:23;;;;;;;2.42;1.40;;;12.40;99.90;;;12.08;100.00;97439.50;5017264;28;20066;-39
2022/05/22 00:02:49;;;;;;;3.03;1.00;;;12.30;99.90;;;12.05;99.48;97425.53;5006679;28;20060;-39
2022/05/22 00:05:18;;;;;;;3.15;1.45;;;12.30;99.90;;;12.10;99.08;97439.44;5006160;28;20037;-39
2022/05/22 00:07:44;;;;;;;1.58;1.10;;;12.30;99.90;;;12.13;98.05;97441.91;4998549;28;20032;-39
2022/05/22 00:10:11;;;;;;;2.92;1.15;;;12.40;99.90;;;12.17;97.20;97439.09;5006163;28;20497;-39
2022/05/22 00:12:38;;;;;;;1.38;1.10;;;12.40;99.90;;;12.18;98.38;97434.66;5007445;28;20037;-39
2022/05/22 00:15:05;;;;;;;2.30;1.00;;;12.40;99.90;;;12.10;99.24;97427.06;5007181;28;20400;-39
2022/05/22 00:17:31;;;;;;;2.70;1.10;;;12.40;99.90;;;12.12;98.92;97434.94;5012327;28;20091;-39
2022/05/22 00:19:56;;;;;;;3.50;1.00;;;12.40;99.90;;;12.12;97.93;97434.94;5011062;28;20034;-39
2022/05/22 00:22:22;;;;;;;2.05;1.08;;;12.40;99.90;;;12.12;97.12;97437.56;5016544;28;20666;-39
2022/05/22 00:24:48;;;;;;;1.60;1.05;;;12.40;99.90;;;12.12;97.14;97437.56;5020864;28;20029;-39
2022/05/22 00:27:13;;;;;;;2.95;1.00;;;12.40;99.90;;;12.08;97.74;97431.56;5017187;28;20029;-40
2022/05/22 00:29:39;;;;;;;1.13;0.82;;;12.40;99.90;;;12.06;99.11;97419.31;5019560;28;20033;-39
2022/05/22 00:32:07;;;;;;;3.90;1.20;;;12.30;99.90;;;11.98;100.00;97422.28;5015926;28;25782;-39
2022/05/22 00:34:33;;;;;;;3.33;0.80;;;12.30;99.90;;;11.90;100.00;97405.84;5018459;28;20557;-39
2022/05/22 00:36:59;;;;;;;2.53;1.00;;;12.20;99.90;;;11.91;99.06;97419.03;5016675;28;20036;-39
2022/05/22 00:39:24;;;;;;;2.35;1.20;;;12.20;99.90;;;11.90;98.52;97419.06;5020776;28;20030;-39
2022/05/22 00:41:54;;;;;;;1.85;1.02;;;12.20;99.90;;;11.93;98.32;97417.19;5017476;28;20025;-39
2022/05/22 00:44:20;;;;;;;2.97;1.50;;;12.20;99.90;;;11.93;98.77;97414.53;5017627;28;20041;-39
2022/05/22 00:46:47;;;;;;;2.90;1.70;;;12.20;99.90;;;11.92;100.00;97410.19;5020226;28;20033;-39
2022/05/22 00:49:22;;;;;;;3.72;2.17;;;12.20;99.90;;;11.90;100.00;97419.06;5020533;28;20263;-39
2022/05/22 00:52:08;;;;;;;3.60;2.33;;;12.10;99.90;;;11.85;100.00;97411.34;5018948;28;20037;-39
2022/05/22 00:54:41;;;;;;;4.53;2.58;;;12.10;99.90;;;11.82;100.00;97408.81;5016204;28;20035;-39
2022/05/22 00:57:25;;;;;;;3.35;1.98;;;12.00;99.90;;;11.80;100.00;97405.38;5013048;28;20029;-39
2022/05/22 00:59:59;;;;;;;4.07;2.25;;;12.00;99.90;;;11.75;100.00;97405.56;5020330;28;20533;-39
2022/05/22 01:02:27;;;;;;;4.95;2.22;;;12.00;99.90;;;11.72;100.00;97395.16;5020929;28;20045;-39
2022/05/22 01:04:52;;;;;;;3.70;2.30;;;12.00;99.90;;;11.70;100.00;97409.31;5013921;28;20175;-39
2022/05/22 01:07:19;;;;;;;4.20;2.33;;;11.90;99.90;;;11.65;100.00;97406.91;5018420;28;20485;-39
2022/05/22 01:09:47;;;;;;;3.78;2.30;;;11.90;99.90;;;11.59;100.00;97393.91;5019185;28;20089;-39
2022/05/22 01:12:19;;;;;;;3.53;2.13;;;11.90;99.90;;;11.60;100.00;97393.88;5015209;28;20038;-39
2022/05/22 01:14:47;;;;;;;6.57;2.67;;;11.90;99.90;;;11.58;100.00;97389.59;5020827;28;20633;-39
2022/05/22 01:17:13;;;;;;;3.17;2.40;;;11.90;99.90;;;11.56;100.00;97384.34;5014909;28;20136;-39
2022/05/22 01:19:39;;;;;;;4.80;2.58;;;11.90;99.90;;;11.56;100.00;97378.22;5018042;28;20452;-39
2022/05/22 01:22:10;;;;;;;5.53;2.70;;;11.90;99.90;;;11.55;100.00;97372.06;5018569;28;20026;-39
2022/05/22 01:24:36;;;;;;;2.72;2.20;;;11.90;99.90;;;11.56;100.00;97378.22;5019483;28;20152;-39
2022/05/22 01:27:07;;;;;;;3.70;2.67;;;11.90;99.90;;;11.52;100.00;97376.59;5013214;28;20050;-39
2022/05/22 01:29:33;;;;;;;4.97;2.75;;;11.90;99.90;;;11.52;100.00;97381.88;5013703;28;20127;-39
2022/05/22 01:31:59;;;;;;;4.30;2.70;;;11.80;99.90;;;11.49;100.00;97392.59;5016870;28;20068;-39
2022/05/22 01:34:24;;;;;;;5.03;2.40;;;11.80;99.90;;;11.42;100.00;97398.13;5015456;28;20040;-39
2022/05/22 01:36:50;;;;;;;2.85;2.20;;;11.70;99.90;;;11.38;100.00;97396.53;5015841;28;20486;-39
2022/05/22 01:39:16;;;;;;;4.43;2.63;;;11.70;99.90;;;11.41;100.00;97398.16;5021059;28;20036;-39
2022/05/22 01:41:41;;;;;;;4.65;2.30;;;11.70;99.90;;;11.32;100.00;97386.19;5021708;28;20029;-41
2022/05/22 01:44:07;;;;;;;6.35;2.60;;;11.70;99.90;;;11.33;100.00;97397.63;5035011;28;20037;-39
2022/05/22 01:46:33;;;;;;;4.05;2.33;;;11.60;99.90;;;11.22;100.00;97383.06;5018503;28;20204;-41
2022/05/22 01:48:59;;;;;;;4.13;2.63;;;11.60;99.90;;;11.20;100.00;97384.91;5014899;28;20061;-40
2022/05/22 01:51:26;;;;;;;7.35;2.55;;;11.50;99.90;;;11.20;100.00;97389.34;5015894;28;21224;-40
2022/05/22 01:53:53;;;;;;;3.53;2.13;;;11.40;99.90;;;11.16;100.00;97377.16;5021656;28;20064;-40
2022/05/22 01:56:18;;;;;;;3.10;2.10;;;11.40;99.90;;;11.13;100.00;97375.53;5021959;28;20711;-40
2022/05/22 01:58:44;;;;;;;3.92;2.30;;;11.40;99.90;;;11.10;100.00;97372.16;5025110;28;20044;-39
2022/05/22 02:01:11;;;;;;;4.93;2.53;;;11.40;99.90;;;11.11;100.00;97389.69;5016958;28;20516;-40
2022/05/22 02:03:37;;;;;;;4.68;2.38;;;11.40;99.90;;;11.04;100.00;97382.03;5014550;28;20037;-40
2022/05/22 02:06:03;;;;;;;3.47;2.53;;;11.40;99.90;;;11.08;100.00;97399.44;5015812;28;20116;-40
2022/05/22 02:08:29;;;;;;;3.92;2.38;;;11.40;99.90;;;11.08;100.00;97385.41;5015636;28;20041;-40
2022/05/22 02:11:00;;;;;;;4.50;2.63;;;11.30;99.90;;;11.07;100.00;97378.38;5010618;28;20033;-38
2022/05/22 02:13:39;;;;;;;3.80;2.40;;;11.40;99.90;;;11.05;100.00;97380.22;5010924;23;20045;-37
2022/05/22 02:16:05;;;;;;;5.32;2.55;;;11.30;99.90;;;11.03;100.00;97375.00;4988862;28;20514;-38
2022/05/22 02:18:31;;;;;;;3.92;2.65;;;11.40;99.90;;;11.04;100.00;97374.09;4990014;28;20073;-38
2022/05/22 02:20:56;;;;;;;4.80;2.60;;;11.30;99.90;;;11.03;100.00;97369.72;4995334;28;20073;-38
2022/05/22 02:23:23;;;;;;;4.22;2.50;;;11.30;99.90;;;11.04;100.00;97365.34;4990548;28;20034;-38
2022/05/22 02:25:52;;;;;;;5.28;2.33;;;11.30;99.90;;;11.04;100.00;97354.78;4996151;28;20037;-37
2022/05/22 02:28:20;;;;;;;3.88;2.60;;;11.30;99.90;;;11.04;100.00;97349.50;4986941;28;20041;-38
2022/05/22 02:30:54;;;;;;;4.97;2.70;;;11.30;99.90;;;11.05;100.00;97343.28;4995655;28;20052;-37
2022/05/22 02:33:20;;;;;;;3.88;2.40;;;11.30;99.90;;;11.04;100.00;97344.22;4988479;28;20030;-38
2022/05/22 02:35:47;;;;;;;4.32;2.67;;;11.30;99.90;;;11.03;100.00;97348.63;4988994;28;20029;-37
2022/05/22 02:38:13;;;;;;;6.00;2.55;;;11.40;99.90;;;11.04;100.00;97347.72;4991217;28;20572;-38
2022/05/22 02:40:39;;;;;;;8.25;2.90;;;11.30;99.90;;;11.00;100.00;97337.31;4992599;28;20029;-38
2022/05/22 02:43:05;;;;;;;5.00;2.60;;;11.40;99.90;;;11.05;100.00;97349.44;4997502;28;20120;-38
2022/05/22 02:45:36;;;;;;;3.13;2.40;;;11.40;99.90;;;11.03;100.00;97348.63;4992588;28;20041;-38
2022/05/22 02:48:02;;;;;;;4.28;2.58;;;11.40;99.90;;;11.04;100.00;97353.00;4993948;28;20042;-37
2022/05/22 02:50:30;;;;;;;4.28;2.15;;;11.40;99.90;;;11.03;100.00;97342.50;4993852;28;20029;-38
2022/05/22 02:52:56;;;;;;;3.78;2.20;;;11.30;99.90;;;11.02;100.00;97341.63;4995645;28;20038;-37
2022/05/22 02:55:22;;;;;;;3.25;2.15;;;11.30;99.90;;;11.02;100.00;97344.28;4989849;28;20041;-39
2022/05/22 02:57:48;;;;;;;4.28;2.38;;;11.30;99.90;;;10.98;100.00;97336.53;4992589;28;20053;-38
2022/05/22 03:00:23;;;;;;;4.38;2.00;;;11.30;99.90;;;11.00;100.00;97339.97;4990735;28;20125;-38
2022/05/22 03:02:53;;;;;;;3.42;2.17;;;11.30;99.90;;;10.97;100.00;97326.91;4988150;28;20117;-38
2022/05/22 03:05:19;;;;;;;3.00;2.22;;;11.30;99.90;;;10.85;100.00;97318.53;4987465;28;20034;-38
2022/05/22 03:07:46;;;;;;;5.57;2.42;;;11.20;99.90;;;10.85;100.00;97318.53;4991711;28;20037;-38
2022/05/22 03:10:14;;;;;;;4.60;2.22;;;11.20;99.90;;;10.82;100.00;97320.44;4993002;28;20033;-38
2022/05/22 03:12:40;;;;;;;2.70;2.13;;;11.10;99.90;;;10.78;100.00;97317.06;4997651;28;21241;-39
2022/05/22 03:15:10;;;;;;;3.03;2.15;;;11.10;99.90;;;10.74;100.00;97319.91;4992923;28;20037;-39
2022/05/22 03:17:35;;;;;;;3.85;2.30;;;11.10;99.90;;;10.70;100.00;97311.25;4992878;28;20962;-39
2022/05/22 03:20:02;;;;;;;3.72;2.13;;;11.00;99.90;;;10.66;100.00;97312.28;4992657;28;20486;-39
2022/05/22 03:22:28;;;;;;;4.35;2.58;;;11.00;99.90;;;10.59;100.00;97297.63;4994386;28;20045;-39
2022/05/22 03:24:54;;;;;;;4.07;2.33;;;10.90;99.90;;;10.60;100.00;97299.31;4995054;28;20029;-39
2022/05/22 03:27:21;;;;;;;3.47;2.55;;;10.90;99.90;;;10.56;100.00;97297.72;4991457;28;20072;-39
2022/05/22 03:29:49;;;;;;;3.70;2.15;;;10.90;99.90;;;10.54;100.00;97302.22;4994595;28;20094;-39
2022/05/22 03:32:14;;;;;;;3.75;2.75;;;10.80;99.90;;;10.52;100.00;97306.69;4989013;28;20038;-39
2022/05/22 03:34:41;;;;;;;3.88;2.80;;;10.80;99.90;;;10.50;100.00;97302.31;4988135;28;20665;-39
2022/05/22 03:37:06;;;;;;;3.70;2.35;;;10.80;99.90;;;10.46;100.00;97299.84;4993162;28;20029;-39
2022/05/22 03:39:33;;;;;;;5.75;2.92;;;10.80;99.90;;;10.49;100.00;97300.59;4992146;28;20044;-39
2022/05/22 03:41:59;;;;;;;3.90;2.47;;;10.80;99.90;;;10.49;100.00;97297.94;4992589;28;20117;-39
2022/05/22 03:44:25;;;;;;;4.28;2.25;;;10.80;99.90;;;10.50;100.00;97296.19;4995584;28;20036;-39
2022/05/22 03:46:51;;;;;;;3.40;2.42;;;10.80;99.90;;;10.50;100.00;97307.59;4991760;28;20061;-38
2022/05/22 03:49:16;;;;;;;3.20;2.60;;;10.90;99.90;;;10.52;100.00;97310.19;4991668;28;20145;-39
2022/05/22 03:51:42;;;;;;;4.07;2.35;;;10.90;99.90;;;10.48;100.00;97292.72;4991056;28;20060;-39
2022/05/22 03:54:09;;;;;;;3.60;2.42;;;10.90;99.90;;;10.57;100.00;97304.72;4995662;28;20057;-39
2022/05/22 03:56:35;;;;;;;3.67;2.40;;;10.90;99.90;;;10.61;100.00;97314.25;4991050;28;20502;-38
2022/05/22 03:59:02;;;;;;;3.72;2.35;;;10.90;99.90;;;10.64;100.00;97308.81;4994927;28;20046;-39
2022/05/22 04:01:28;;;;;;;3.45;2.30;;;11.00;99.90;;;10.63;100.00;97292.16;4987904;28;20037;-39
2022/05/22 04:03:54;;;;;;;2.95;2.33;;;11.10;99.90;;;10.76;100.00;97303.06;4988714;28;20033;-39
2022/05/22 04:06:20;;;;;;;3.67;2.17;;;11.10;99.90;;;10.80;100.00;97299.44;4993942;28;20034;-39
2022/05/22 04:08:45;;;;;;;3.50;2.30;;;11.10;99.90;;;10.87;100.00;97300.91;4991369;28;20069;-39
2022/05/22 04:11:19;;;;;;;2.25;2.03;;;11.20;99.90;;;10.94;100.00;97292.72;4993357;28;20313;-39
2022/05/22 04:13:45;;;;;;;4.43;2.00;;;11.30;99.90;;;11.01;100.00;97281.00;4987666;28;20044;-39
2022/05/22 04:16:11;;;;;;;2.95;1.80;;;11.30;99.90;;;11.06;100.00;97279.03;4992133;28;20033;-39
2022/05/22 04:18:37;;;;;;;2.50;1.95;;;11.40;99.90;;;11.16;100.00;97279.50;4989711;28;20034;-39
2022/05/22 04:21:03;;;;;;;3.63;2.10;;;11.50;99.90;;;11.23;100.00;97287.13;4995972;28;20042;-39
2022/05/22 04:26:13;;;;;;;4.95;1.83;;;11.60;99.90;;;11.36;100.00;97287.47;4993229;28;20041;-39
2022/05/22 04:28:40;;;;;;;4.13;1.95;;;11.70;99.90;;;11.41;100.00;97280.22;4990091;28;20494;-39
2022/05/22 04:31:05;;;;;;;2.30;1.63;;;11.70;99.90;;;11.34;100.00;97249.72;4984964;28;20409;-38
2022/05/22 04:33:32;;;;;;;4.95;1.95;;;11.80;99.90;;;11.59;100.00;97275.94;4995823;28;20030;-37
2022/05/22 04:35:59;;;;;;;2.65;2.05;;;11.90;99.90;;;11.66;100.00;97268.59;4998552;28;20516;-37
2022/05/22 04:38:25;;;;;;;3.20;1.92;;;12.00;99.90;;;11.78;100.00;97278.63;4995329;28;20034;-38
2022/05/22 04:41:00;;;;;;;2.88;1.75;;;12.10;99.90;;;11.84;100.00;97267.81;4998603;28;20554;-38
2022/05/22 04:43:27;;;;;;;2.58;1.83;;;12.10;99.90;;;11.95;100.00;97275.28;4994604;28;20036;-38
2022/05/22 04:45:54;;;;;;;3.50;2.10;;;12.20;99.90;;;12.03;100.00;97280.22;4991685;28;20128;-38
2022/05/22 04:48:22;;;;;;;3.28;2.00;;;12.30;99.90;;;12.09;100.00;97282.59;4996681;28;20093;-38
2022/05/22 04:50:50;;;;;;;3.72;1.95;;;12.40;99.90;;;12.17;100.00;97280.47;4994868;28;20030;-38
2022/05/22 04:53:20;;;;;;;1.73;1.50;;;12.40;99.90;;;12.23;100.00;97274.03;4995640;28;20033;-38
2022/05/22 04:55:46;;;;;;;3.05;2.00;;;12.50;99.90;;;12.28;100.00;97277.34;4992152;28;20038;-38
2022/05/22 04:58:13;;;;;;;6.47;1.85;;;12.50;99.90;;;12.27;100.00;97283.53;4993757;28;20042;-38
2022/05/22 05:00:40;;;;;;;3.25;2.00;;;12.60;99.90;;;12.38;100.00;97281.28;4995266;28;20037;-38
2022/05/22 05:03:06;;;;;;;2.22;1.60;;;12.70;99.90;;;12.46;100.00;97280.06;4986383;28;20089;-38
2022/05/22 05:05:31;;;;;;;3.10;1.60;;;12.80;99.90;;;12.56;100.00;97279.56;4994183;28;20092;-38
2022/05/22 05:07:57;;;;;;;5.57;1.70;;;12.80;99.90;;;12.68;100.00;97280.75;4996372;28;20141;-38
2022/05/22 05:10:24;;;;;;;3.47;1.85;;;13.00;99.90;;;12.78;100.00;97276.75;4996897;28;20038;-38
2022/05/22 05:12:50;;;;;;;2.75;1.65;;;13.00;99.90;;;12.80;100.00;97240.47;4972023;28;20697;-39
2022/05/22 05:15:19;;;;;;;4.15;2.00;;;13.20;99.90;;;13.11;100.00;97268.09;4989906;28;20033;-38
2022/05/22 05:17:47;;;;;;;2.97;1.80;;;13.40;99.90;;;13.24;100.00;97259.56;4989969;28;20296;-38
2022/05/22 05:20:16;;;;;;;2.45;1.80;;;13.50;99.90;;;13.45;99.56;97261.16;4994076;28;20057;-37
2022/05/22 05:22:43;;;;;;;2.58;1.58;;;13.60;99.90;;;13.79;97.68;97263.88;4979225;28;20137;-38
2022/05/22 05:25:11;;;;;;;3.25;1.70;;;13.90;99.90;;;14.16;95.39;97262.78;4992386;28;20450;-38
2022/05/22 05:27:37;;;;;;;4.00;1.90;;;14.20;99.90;;;14.35;92.39;97256.50;4994289;28;20042;-38
2022/05/22 05:30:04;;;;;;;5.43;1.73;;;14.40;99.90;;;14.46;92.75;97259.41;4991840;28;20533;-38
2022/05/22 05:32:30;;;;;;;3.53;1.98;;;14.50;99.90;;;14.57;88.91;97269.44;4990253;28;20147;-38
2022/05/22 05:35:07;;;;;;;5.35;1.75;;;14.70;99.90;;;14.91;87.72;97264.91;4994484;28;20129;-38
2022/05/22 05:37:34;;;;;;;2.92;1.48;;;14.80;99.90;;;15.37;85.86;97263.13;4995077;28;20558;-38
2022/05/22 05:40:00;;;;;;;2.70;1.60;;;15.10;99.90;;;15.83;81.91;97259.59;4976895;28;20489;-38
2022/05/22 05:42:32;;;;;;;4.10;1.63;;;15.50;99.90;;;16.19;79.49;97271.59;4993674;28;20049;-39
2022/05/22 05:44:58;;;;;;;4.63;1.80;;;15.80;99.90;;;16.44;77.40;97268.25;4995269;28;20041;-38
2022/05/22 05:47:24;;;;;;;2.58;1.52;;;16.10;99.90;;;16.57;75.34;97261.19;4997195;28;20065;-38
2022/05/22 05:49:49;;;;;;;3.22;1.65;;;16.30;99.90;;;16.67;74.36;97260.59;4995320;28;20505;-38
2022/05/22 05:52:15;;;;;;;3.28;1.92;;;16.40;99.90;;;16.65;73.17;97260.69;4994634;28;20065;-38
2022/05/22 05:54:41;;;;;;;2.58;1.80;;;16.50;99.90;;;16.69;73.43;97261.34;4994569;28;20042;-38
2022/05/22 05:57:06;;;;;;;2.63;1.88;;;16.60;99.90;;;16.71;72.57;97267.47;4998925;28;20129;-38
2022/05/22 05:59:33;;;;;;;4.63;1.95;;;16.60;99.90;;;16.71;72.22;97268.31;4994150;28;20065;-38
2022/05/22 06:02:00;;;;;;;2.75;1.50;;;16.60;99.90;;;16.72;72.71;97259.34;4994285;28;20113;-38
2022/05/22 06:04:26;;;;;;;3.15;1.70;;;16.70;99.90;;;16.74;73.20;97261.94;4993782;28;20501;-38
2022/05/22 06:06:51;;;;;;;3.80;1.75;;;16.70;99.90;;;16.73;72.16;97263.75;4995437;28;20095;-38
2022/05/22 06:09:17;;;;;;;3.63;1.85;;;16.80;99.90;;;16.60;71.41;97254.84;4993717;28;20125;-38
2022/05/22 06:11:43;;;;;;;3.10;1.50;;;16.70;99.90;;;16.66;72.71;97259.75;4997346;28;20095;-39
2022/05/22 06:14:09;;;;;;;1.58;1.30;;;16.70;99.90;;;16.73;73.79;97245.09;4991610;28;20045;-38
2022/05/22 06:16:35;;;;;;;2.85;1.77;;;16.80;99.90;;;16.86;70.88;97255.00;4996347;28;20494;-38
2022/05/22 06:19:01;;;;;;;1.95;1.42;;;17.00;99.90;;;16.95;71.41;97244.59;4997708;28;20038;-38
2022/05/22 06:21:26;;;;;;;2.28;1.40;;;17.00;99.90;;;17.09;70.97;97248.19;4994311;28;20107;-38
2022/05/22 06:23:52;;;;;;;2.90;1.45;;;17.20;99.90;;;17.17;69.71;97251.16;4993541;28;20034;-39
2022/05/22 06:26:18;;;;;;;3.58;1.27;;;17.30;99.90;;;17.21;69.12;97244.72;4997390;28;20413;-39
2022/05/22 06:28:46;;;;;;;1.90;1.10;;;17.40;99.90;;;17.34;68.83;97234.94;4997309;28;20046;-39
2022/05/22 06:31:12;;;;;;;3.45;1.52;;;17.50;99.90;;;17.41;67.12;97246.03;4988013;28;20061;-39
2022/05/22 06:33:39;;;;;;;4.28;1.60;;;17.60;99.90;;;17.47;66.97;97244.78;4997177;28;20053;-38
2022/05/22 06:36:12;;;;;;;2.10;1.30;;;17.60;99.90;;;17.58;67.05;97250.22;4996771;28;20041;-38
2022/05/22 06:41:22;;;;;;;1.83;1.35;;;17.80;99.90;;;17.75;64.97;97247.28;4997419;28;20041;-39
2022/05/22 06:43:51;;;;;;;2.80;1.30;;;18.00;99.90;;;17.87;64.22;97252.75;4995617;28;20021;-38
2022/05/22 06:46:26;;;;;;;2.65;1.27;;;18.00;99.90;;;17.98;64.25;97252.88;4995427;28;20048;-38
2022/05/22 06:48:52;;;;;;;2.05;1.20;;;18.10;99.90;;;18.05;63.19;97255.94;4998062;28;20062;-38
2022/05/22 06:51:17;;;;;;;4.50;1.33;;;18.20;99.90;;;18.13;62.87;97249.13;4995924;28;20025;-40
2022/05/22 06:53:43;;;;;;;2.80;1.65;;;18.20;99.90;;;18.10;62.35;97245.81;4995846;28;20069;-38
2022/05/22 06:56:09;;;;;;;2.13;1.30;;;18.30;99.90;;;18.30;64.21;97250.63;4994716;28;20053;-39
2022/05/22 06:58:36;;;;;;;2.53;1.10;;;18.40;99.90;;;18.38;61.04;97255.41;4989802;28;20409;-38
2022/05/22 07:01:02;;;;;;;3.00;1.42;;;18.50;99.90;;;18.39;61.84;97251.75;4994857;28;20541;-38
2022/05/22 07:03:28;;;;;;;3.42;1.42;;;18.60;99.90;;;18.46;60.13;97265.53;4987973;28;20045;-39
2022/05/22 07:05:53;;;;;;;2.38;1.35;;;18.60;99.90;;;18.54;59.58;97262.31;4992596;28;20274;-38
2022/05/22 07:08:19;;;;;;;2.70;1.20;;;18.70;99.90;;;18.63;59.36;97269.69;4992494;28;20034;-38
2022/05/22 07:13:29;;;;;;;5.03;1.58;;;18.90;99.90;;;18.74;57.66;97258.25;4991069;28;20079;-39
2022/05/22 07:16:04;;;;;;;2.60;1.38;;;18.90;99.90;;;18.87;59.39;97265.25;4992754;28;20430;-38
2022/05/22 07:18:30;;;;;;;3.30;1.33;;;19.00;99.90;;;18.94;60.02;97255.00;4991850;28;20034;-39
2022/05/22 07:20:56;;;;;;;5.80;1.52;;;19.10;99.90;;;18.95;57.36;97250.50;4993622;28;20069;-39
2022/05/22 07:23:22;;;;;;;2.58;1.25;;;19.10;99.90;;;18.87;57.52;97254.56;4992389;28;20061;-38
2022/05/22 07:25:48;;;;;;;3.53;1.50;;;19.00;99.90;;;18.96;57.88;97258.41;4990477;28;20477;-38
2022/05/22 07:28:13;;;;;;;1.95;1.17;;;19.10;99.90;;;19.11;58.60;97253.72;4988652;28;20454;-38
2022/05/22 07:30:39;;;;;;;3.20;1.55;;;19.20;99.90;;;19.29;57.46;97248.00;4995106;28;20030;-38
2022/05/22 07:33:05;;;;;;;2.58;1.30;;;19.40;99.90;;;19.38;55.50;97258.00;4993394;28;20120;-38
2022/05/22 07:35:31;;;;;;;2.28;1.35;;;19.50;99.90;;;19.33;56.34;97233.44;4992833;28;20030;-38
2022/05/22 07:37:57;;;;;;;3.60;1.50;;;19.50;99.90;;;19.46;55.44;97236.91;4993240;28;20625;-38
2022/05/22 07:40:23;;;;;;;3.03;1.58;;;19.50;99.90;;;19.58;56.30;97238.66;4974102;28;20025;-38
2022/05/22 07:42:48;;;;;;;2.22;1.50;;;19.70;99.90;;;19.69;55.25;97243.19;4990382;28;20065;-38
2022/05/22 07:45:15;;;;;;;2.60;1.20;;;19.80;99.60;;;19.63;55.29;97236.47;4989889;28;20030;-38
2022/05/22 07:47:42;;;;;;;2.47;1.63;;;19.80;99.50;;;19.71;57.02;97235.03;4987659;28;20124;-38
2022/05/22 07:50:17;;;;;;;4.55;1.55;;;19.90;99.90;;;19.68;56.63;97229.91;4993148;28;20510;-38
2022/05/22 07:52:44;;;;;;;4.57;1.70;;;19.90;99.90;;;19.82;57.29;97235.09;4992999;28;20034;-38
2022/05/22 07:55:14;;;;;;;4.13;1.48;;;19.90;99.90;;;19.87;54.97;97229.38;4993181;28;20030;-38
2022/05/22 07:57:45;;;;;;;3.60;1.75;;;20.00;99.80;;;19.75;54.54;97223.16;4990588;28;20040;-38
2022/05/22 08:00:14;;;;;;;4.38;1.70;;;19.90;99.00;;;19.77;57.48;97223.88;4990258;28;20026;-38
2022/05/22 08:02:39;;;;;;;2.45;1.52;;;19.90;99.70;;;19.84;57.61;97223.28;4975195;28;20216;-38
2022/05/22 08:05:07;;;;;;;2.50;1.55;;;19.90;99.90;;;19.87;56.49;97218.69;4996373;28;20128;-38
2022/05/22 08:07:33;;;;;;;2.67;1.70;;;19.90;99.60;;;19.92;54.49;97208.44;4993606;28;20032;-39
2022/05/22 08:09:59;;;;;;;4.18;1.70;;;20.00;99.00;;;19.94;54.51;97207.38;4994614;28;20072;-39
2022/05/22 08:12:26;;;;;;;3.08;1.27;;;20.00;98.60;;;19.96;53.79;97204.59;4994583;28;20087;-39
2022/05/22 08:14:52;;;;;;;2.13;1.35;;;20.10;98.20;;;19.96;53.82;97207.25;4997631;28;20409;-39
2022/05/22 08:17:21;;;;;;;4.55;1.65;;;20.10;98.00;;;20.00;54.00;97214.91;4998129;28;20045;-39
2022/05/22 08:19:48;;;;;;;3.20;1.40;;;20.20;98.10;;;20.13;53.38;97190.69;4995957;28;20030;-39
2022/05/22 08:22:17;;;;;;;3.70;1.50;;;20.30;98.40;;;20.25;53.85;97191.56;5011737;23;20088;-38
2022/05/22 08:24:43;;;;;;;2.72;1.40;;;20.40;98.10;;;20.35;52.12;97195.22;5004663;28;20045;-38
2022/05/22 08:27:08;;;;;;;1.80;1.23;;;20.50;97.20;;;20.45;51.60;97197.16;5005218;28;20112;-37
2022/05/22 08:29:34;;;;;;;2.05;1.30;;;20.50;97.00;;;20.41;52.56;97184.00;4995828;28;20549;-37
2022/05/22 08:32:00;;;;;;;1.85;1.33;;;20.60;97.20;;;20.49;53.18;97185.22;4998389;28;20044;-37
2022/05/22 08:34:25;;;;;;;1.67;1.38;;;20.60;97.10;;;20.59;54.24;97183.50;4980718;28;20131;-38
2022/05/22 08:36:51;;;;;;;3.08;1.55;;;20.70;97.40;;;20.61;51.36;97176.22;4983418;28;20041;-37
2022/05/22 08:39:18;;;;;;;2.00;1.23;;;20.70;96.50;;;20.64;51.98;97178.66;4980429;28;20333;-38
2022/05/22 08:41:48;;;;;;;1.63;1.10;;;20.80;96.40;;;20.72;53.43;97178.03;4980401;28;20049;-37
2022/05/22 08:44:26;;;;;;;3.15;1.30;;;20.80;97.10;;;20.81;52.56;97176.44;4982727;28;20664;-38
2022/05/22 08:46:54;;;;;;;3.13;1.58;;;20.90;96.80;;;20.85;53.42;97172.50;4979415;28;20490;-38
2022/05/22 08:49:51;;;;;;;3.63;1.60;;;20.90;97.00;;;20.81;50.72;97173.75;4982039;28;20157;-37
2022/05/22 08:52:37;;;;;;;3.35;1.42;;;20.90;95.50;;;20.82;51.29;97170.06;4981099;28;20553;-38
2022/05/22 08:55:16;;;;;;;3.40;1.40;;;20.90;95.70;;;20.73;50.06;97164.50;4982576;28;20030;-37
2022/05/22 09:00:38;;;;;;;2.75;1.52;;;20.90;95.00;;;20.74;50.19;97162.66;4980819;28;20509;-38
2022/05/22 09:03:30;;;;;;;2.47;1.60;;;20.90;94.40;;;20.78;49.99;97161.44;4984519;28;20080;-38
2022/05/22 09:06:01;;;;;;;2.25;1.30;;;21.00;94.40;;;20.85;51.06;97154.59;4973658;28;20084;-38
2022/05/22 09:08:43;;;;;;;2.53;1.30;;;21.00;94.90;;;20.95;52.51;97155.53;4998614;28;20554;-38
2022/05/22 09:11:14;;;;;;;3.42;1.50;;;21.10;96.10;;;20.76;49.46;97158.03;4981640;28;20124;-38
2022/05/22 09:14:09;;;;;;;4.07;1.50;;;21.10;93.80;;;20.86;50.38;97163.50;4977619;28;20038;-38
2022/05/22 09:16:47;;;;;;;1.80;0.95;;;21.00;94.40;;;20.93;50.85;97145.94;4988341;28;20126;-38
2022/05/22 09:19:37;;;;;;;4.20;1.60;;;21.10;94.60;;;20.95;51.13;97143.97;4974744;28;20034;-38
2022/05/22 09:22:12;;;;;;;2.47;1.58;;;21.10;95.00;;;20.96;51.62;97145.66;4974739;28;20654;-38
2022/05/22 09:25:28;;;;;;;2.40;1.67;;;21.10;94.90;;;21.03;50.04;97136.16;4987835;28;20688;-38
2022/05/22 09:28:46;;;;;;;2.90;1.40;;;21.20;94.60;;;21.16;52.60;97142.19;4981227;28;20030;-38
2022/05/22 09:31:27;;;;;;;3.55;1.48;;;21.30;94.90;;;21.21;52.35;97133.75;4980199;28;20048;-38
2022/05/22 09:34:30;;;;;;;1.48;1.23;;;21.30;95.50;;;21.18;52.72;97139.38;4975341;28;20130;-38
2022/05/22 09:37:08;;;;;;;;;;;21.40;95.10;;;21.05;48.72;97128.84;4995158;28;20377;-38
2022/05/22 09:39:53;;;;;;;4.65;1.50;;;21.30;93.00;;;21.16;51.25;97125.25;4980620;28;20448;-38
2022/05/22 09:42:25;;;;;;;2.17;1.23;;;21.30;94.50;;;21.26;50.64;97133.34;4974708;28;20037;-38
2022/05/22 09:45:44;;;;;;;1.83;1.27;;;21.40;94.30;;;21.36;48.84;97123.56;4981676;28;20022;-38
2022/05/22 09:48:34;;;;;;;2.80;1.38;;;21.50;93.20;;;21.38;48.93;97126.09;4977675;28;20508;-38
2022/05/22 09:51:18;;;;;;;4.05;1.30;;;21.50;93.10;;;21.43;47.49;97122.03;5007903;28;20499;-38
2022/05/22 09:53:53;;;;;;;2.67;1.48;;;21.60;92.60;;;21.56;48.74;97121.88;4978133;28;20030;-38
2022/05/22 09:57:16;;;;;;;3.20;1.55;;;21.70;93.10;;;21.72;47.42;97122.25;4981174;28;20122;-38
2022/05/22 10:00:07;;;;;;;3.93;1.43;;;21.90;92.00;;;22.00;46.53;97129.72;4983313;28;20088;-38
2022/05/22 10:02:39;;;;;;;3.40;1.80;;;22.20;91.50;;;22.08;47.31;97124.53;4978475;28;20297;-38
2022/05/22 10:05:26;;;;;;;1.73;1.13;;;22.30;91.70;;;22.27;48.99;97116.56;4974138;28;20117;-38
2022/05/22 10:08:11;;;;;;;2.08;1.30;;;22.40;92.80;;;22.13;45.59;97114.25;4976770;28;20041;-38
2022/05/22 10:10:57;;;;;;;3.55;1.80;;;22.30;90.20;;;21.84;45.93;97112.28;4978517;28;20426;-38
2022/05/22 10:14:03;;;;;;;2.47;1.30;;;22.20;89.80;;;21.79;46.58;97102.94;4976526;28;20062;-38
2022/05/22 10:16:57;;;;;;;1.98;1.05;;;22.00;90.40;;;21.80;50.90;97102.78;4983327;28;20026;-39
2022/05/22 10:19:35;;;;;;;3.80;1.73;;;22.00;92.80;;;21.64;46.23;97105.97;4984039;28;20046;-38
2022/05/22 10:22:53;;;;;;;2.25;1.30;;;21.90;90.20;;;21.68;46.99;97098.50;4983362;28;22922;-38
2022/05/22 10:25:27;;;;;;;2.38;1.20;;;21.90;90.90;;;21.62;47.25;97090.97;4983060;28;20041;-38
2022/05/22 10:28:05;;;;;;;3.20;1.50;;;21.90;90.70;;;21.82;47.08;97102.66;4992622;28;20033;-38
2022/05/22 10:31:28;;;;;;;2.50;1.60;;;22.00;90.90;;;21.84;46.28;97100.66;4976488;28;20030;-38
2022/05/22 10:34:21;;;;;;;2.40;1.30;;;22.00;90.00;;;21.99;47.61;97091.28;4976643;28;20061;-38
2022/05/22 10:36:55;;;;;;;1.70;1.20;;;22.10;90.90;;;22.15;47.59;97093.47;4984776;28;20037;-38
2022/05/22 10:39:20;;;;;;;3.20;1.27;;;22.20;91.20;;;22.23;47.57;97088.25;4976682;28;20052;-38